Leesburg, Florida
Current Conditions -  °F | °C
As of 2:53 AM on Monday 22 Dec 2014 (Local Time) from KLEE Reporting Station
Light Rain Light Rain  
Wind Chill: 64°   Ceiling: 4200
Heat Index: 64°   Visibility: 6mi
Dew Point: 63°   Wind: 6mph
Humidity: 96%   Direction: 80°E
Pressure: 30.04"   Gusts: NA
Location:  28.81°N, 81.88°W
Report Text: KLEE 220753Z AUTO 08005KT 6SM -RA BR SCT019 BKN042 OVC080 18/17 A3004 RMK AO2 SLP171 P0032 T01780172
Loading
Personal Weather Stations






























Interactive Weather Map New forecast layout! Learn more

10-Day Weather Forecast

Advertisements
Track Severe Weather on mobile